Time;durP1;ratioP1;P1;durP2;ratioP2;P2;SDS_P1;SDS_P2;PMS_P1;PMS_P2;Temp;Humidity;BMP_temperature;BMP_pressure;BME280_temperature;BME280_humidity;BME280_pressure;Samples;Min_cycle;Max_cycle;Signal;HPM_P1;HPM_P2
2020/12/03 00:01:01;;;;;;;19.23;2.80;;;20.90;99.90;;;;;;5026308;28;20108;-76
2020/12/03 00:03:34;;;;;;;17.13;3.13;;;20.80;99.90;;;;;;5049359;22;20077;-76
2020/12/03 00:06:06;;;;;;;17.92;3.00;;;20.80;99.90;;;;;;5034205;28;20100;-76
2020/12/03 00:08:37;;;;;;;14.35;2.33;;;20.70;99.90;;;;;;5014985;28;20084;-76
2020/12/03 00:11:05;;;;;;;15.00;2.60;;;20.70;99.90;;;;;;5012256;28;20040;-76
2020/12/03 00:13:34;;;;;;;21.30;3.63;;;20.80;99.90;;;;;;5013056;28;20026;-76
2020/12/03 00:16:03;;;;;;;22.08;4.30;;;21.00;99.90;;;;;;5012036;28;20030;-76
2020/12/03 00:18:35;;;;;;;14.32;2.15;;;21.00;99.90;;;;;;5012597;28;20048;-75
2020/12/03 00:21:05;;;;;;;16.63;2.67;;;21.10;99.90;;;;;;5016081;23;20123;-74
2020/12/03 00:23:32;;;;;;;15.60;2.95;;;21.30;99.90;;;;;;5012568;28;20026;-75
2020/12/03 00:26:00;;;;;;;14.85;2.85;;;21.30;99.90;;;;;;5008854;28;20037;-74
2020/12/03 00:28:37;;;;;;;15.48;2.13;;;21.40;99.90;;;;;;4986582;28;20023;-74
2020/12/03 00:31:05;;;;;;;12.35;2.75;;;21.40;99.90;;;;;;4990599;28;20049;-74
2020/12/03 00:33:33;;;;;;;17.05;3.25;;;21.40;99.90;;;;;;4993280;28;20109;-74
2020/12/03 00:36:00;;;;;;;15.85;2.03;;;21.40;99.90;;;;;;4992357;28;20027;-74
2020/12/03 00:38:28;;;;;;;13.65;2.97;;;21.20;99.90;;;;;;4993578;28;20122;-75
2020/12/03 00:40:55;;;;;;;14.73;2.22;;;21.00;99.90;;;;;;4991136;28;20058;-74
2020/12/03 00:43:23;;;;;;;11.20;1.92;;;20.80;99.90;;;;;;4993707;28;20046;-75
2020/12/03 00:45:50;;;;;;;15.25;2.50;;;20.80;99.90;;;;;;4995178;28;20026;-74
2020/12/03 00:48:19;;;;;;;14.82;3.45;;;20.70;99.90;;;;;;4993354;28;20034;-73
2020/12/03 00:50:47;;;;;;;14.02;2.72;;;20.60;99.90;;;;;;4992144;28;20042;-74
2020/12/03 00:53:15;;;;;;;17.08;2.47;;;20.70;99.90;;;;;;5030942;22;20148;-74
2020/12/03 00:55:43;;;;;;;14.10;2.45;;;20.90;99.90;;;;;;5026773;28;20347;-74
2020/12/03 00:58:10;;;;;;;18.60;3.63;;;21.10;99.90;;;;;;5032423;28;20106;-74
2020/12/03 01:00:38;;;;;;;8.15;2.13;;;21.20;99.90;;;;;;5025675;28;20449;-74
2020/12/03 01:03:07;;;;;;;15.73;2.88;;;21.30;99.90;;;;;;5030579;28;20060;-77
2020/12/03 01:05:34;;;;;;;13.82;2.28;;;21.20;99.90;;;;;;5027338;28;20030;-75
2020/12/03 01:08:01;;;;;;;23.55;3.58;;;21.20;99.90;;;;;;5033391;28;20017;-77
2020/12/03 01:10:32;;;;;;;16.55;2.60;;;20.90;99.90;;;;;;5030538;28;20071;-76
2020/12/03 01:13:04;;;;;;;19.58;3.80;;;20.80;99.90;;;;;;5033332;28;20496;-75
2020/12/03 01:15:32;;;;;;;16.30;2.22;;;20.90;99.90;;;;;;5028923;28;20116;-75
2020/12/03 01:17:59;;;;;;;17.00;3.20;;;20.90;99.90;;;;;;5032357;28;20469;-74
2020/12/03 01:20:29;;;;;;;9.48;1.83;;;20.90;99.90;;;;;;5028956;28;20038;-74
2020/12/03 01:22:57;;;;;;;10.25;1.42;;;20.90;99.90;;;;;;5032944;28;20025;-75
2020/12/03 01:25:26;;;;;;;9.00;1.83;;;21.00;99.90;;;;;;5027723;28;20103;-74
2020/12/03 01:27:54;;;;;;;7.95;1.42;;;21.10;99.90;;;;;;5025134;28;20022;-75
2020/12/03 01:30:22;;;;;;;11.35;1.63;;;21.20;99.90;;;;;;5026791;28;20478;-75
2020/12/03 01:32:50;;;;;;;11.95;2.60;;;21.40;99.90;;;;;;5028255;28;20109;-75
2020/12/03 01:35:19;;;;;;;8.82;1.23;;;21.40;99.90;;;;;;5029210;28;20021;-74
2020/12/03 01:37:49;;;;;;;9.20;1.58;;;21.50;99.90;;;;;;5030860;28;20075;-74
2020/12/03 01:40:20;;;;;;;7.38;1.52;;;21.50;99.90;;;;;;5028736;28;20021;-75
2020/12/03 01:42:48;;;;;;;8.02;1.33;;;21.60;99.90;;;;;;5031165;28;20018;-75
2020/12/03 01:45:46;;;;;;;7.15;1.30;;;21.60;99.90;;;;;;5019908;28;20069;-75
2020/12/03 01:48:37;;;;;;;8.95;2.10;;;21.60;99.90;;;;;;5027158;28;20419;-75
2020/12/03 01:51:12;;;;;;;10.00;1.70;;;21.50;99.90;;;;;;5027746;28;20464;-74
2020/12/03 01:53:40;;;;;;;7.05;1.92;;;21.60;99.90;;;;;;5032551;22;20076;-74
2020/12/03 01:56:26;;;;;;;11.48;1.95;;;21.60;99.90;;;;;;5041521;22;20041;-74
2020/12/03 01:58:56;;;;;;;14.73;1.90;;;21.50;99.90;;;;;;5028478;28;20393;-73
2020/12/03 02:01:23;;;;;;;12.45;2.28;;;21.50;99.90;;;;;;5046989;23;20049;-73
2020/12/03 02:03:51;;;;;;;14.95;2.65;;;21.50;99.90;;;;;;5030674;28;20514;-76
2020/12/03 02:06:30;;;;;;;11.63;2.15;;;21.50;99.90;;;;;;5020608;22;20475;-73
2020/12/03 02:08:57;;;;;;;16.05;2.67;;;21.40;99.90;;;;;;5006078;28;20084;-73
2020/12/03 02:11:25;;;;;;;12.30;1.98;;;21.60;99.90;;;;;;5007767;28;20104;-73
2020/12/03 02:14:02;;;;;;;13.40;3.10;;;21.80;99.90;;;;;;5022614;22;20498;-73
2020/12/03 02:16:34;;;;;;;11.65;2.35;;;21.80;99.90;;;;;;5018297;28;20076;-73
2020/12/03 02:19:01;;;;;;;19.65;2.95;;;21.80;99.90;;;;;;5012052;28;20026;-74
2020/12/03 02:21:29;;;;;;;18.88;3.28;;;21.70;99.90;;;;;;5012048;28;20029;-74
2020/12/03 02:23:56;;;;;;;18.30;3.40;;;21.60;99.90;;;;;;4994280;28;20037;-73
2020/12/03 02:26:23;;;;;;;17.90;3.90;;;21.70;99.90;;;;;;5011765;28;20108;-74
2020/12/03 02:28:51;;;;;;;19.25;4.15;;;21.60;99.90;;;;;;4998371;28;20018;-73
2020/12/03 02:31:18;;;;;;;22.33;4.10;;;21.60;99.90;;;;;;5037267;22;20056;-74
2020/12/03 02:33:46;;;;;;;23.70;3.90;;;21.40;99.90;;;;;;5018034;28;20018;-74
2020/12/03 02:36:16;;;;;;;20.83;3.58;;;21.40;99.90;;;;;;5038536;28;20037;-74
2020/12/03 02:38:44;;;;;;;18.05;3.25;;;21.30;99.90;;;;;;5030561;28;20021;-73
2020/12/03 02:41:11;;;;;;;20.75;3.92;;;21.20;99.90;;;;;;5030228;28;20034;-74
2020/12/03 02:43:39;;;;;;;16.15;3.53;;;21.20;99.90;;;;;;5026053;28;20120;-74
2020/12/03 02:46:06;;;;;;;21.60;6.03;;;21.20;99.90;;;;;;5029211;28;20075;-74
2020/12/03 02:48:33;;;;;;;18.77;4.45;;;21.30;99.90;;;;;;5032219;28;20025;-74
2020/12/03 02:51:01;;;;;;;15.10;2.60;;;21.30;99.90;;;;;;5027479;28;20022;-74
2020/12/03 02:53:28;;;;;;;20.27;3.50;;;21.40;99.90;;;;;;5026689;28;20545;-75
2020/12/03 02:55:55;;;;;;;15.80;2.88;;;21.40;99.90;;;;;;5026705;28;20183;-74
2020/12/03 02:58:23;;;;;;;15.75;3.03;;;21.40;99.90;;;;;;5031505;28;20022;-77
2020/12/03 03:00:50;;;;;;;10.57;2.38;;;21.50;99.90;;;;;;5028505;28;20041;-76
2020/12/03 03:03:17;;;;;;;16.55;3.08;;;21.60;99.90;;;;;;5024990;22;20081;-77
2020/12/03 03:05:44;;;;;;;19.42;2.75;;;21.90;99.90;;;;;;4995437;28;20035;-77
2020/12/03 03:08:12;;;;;;;19.35;3.95;;;22.00;99.90;;;;;;5009207;28;20034;-77
2020/12/03 03:10:39;;;;;;;17.02;3.40;;;22.00;99.90;;;;;;4996238;28;20026;-76
2020/12/03 03:13:06;;;;;;;16.80;3.15;;;21.80;99.90;;;;;;4992215;28;20038;-76
2020/12/03 03:15:33;;;;;;;33.67;4.88;;;21.60;99.90;;;;;;4992349;28;20027;-76
2020/12/03 03:18:01;;;;;;;23.13;3.75;;;21.60;99.90;;;;;;4991769;28;20030;-76
2020/12/03 03:20:28;;;;;;;17.55;3.08;;;21.50;99.90;;;;;;4991124;28;20030;-76
2020/12/03 03:22:55;;;;;;;29.20;4.90;;;21.60;99.90;;;;;;4999266;28;20022;-75
2020/12/03 03:25:22;;;;;;;14.35;2.88;;;21.60;99.90;;;;;;4997301;28;20490;-76
2020/12/03 03:27:50;;;;;;;17.88;2.75;;;21.50;99.90;;;;;;4994606;28;20446;-76
2020/12/03 03:30:20;;;;;;;20.00;3.65;;;21.40;99.90;;;;;;4991290;28;20092;-78
2020/12/03 03:32:48;;;;;;;14.88;3.35;;;21.10;99.90;;;;;;4992788;28;20034;-76
2020/12/03 03:35:20;;;;;;;19.15;3.05;;;21.00;99.90;;;;;;4995760;28;20026;-76
2020/12/03 03:37:48;;;;;;;19.52;3.05;;;21.00;99.90;;;;;;4997852;28;20033;-79
2020/12/03 03:40:16;;;;;;;14.75;3.25;;;21.00;99.90;;;;;;4995786;28;20030;-79
2020/12/03 03:42:44;;;;;;;15.75;2.35;;;20.80;99.90;;;;;;5010734;28;20041;-75
2020/12/03 03:45:12;;;;;;;12.77;2.85;;;20.70;99.90;;;;;;5006728;28;20045;-78
2020/12/03 03:47:40;;;;;;;16.10;4.13;;;20.80;99.90;;;;;;5014932;28;20013;-76
2020/12/03 03:50:08;;;;;;;16.45;3.28;;;20.80;99.90;;;;;;5012213;28;20081;-77
2020/12/03 03:52:36;;;;;;;14.00;2.50;;;20.80;99.90;;;;;;4994145;28;20021;-77
2020/12/03 03:55:05;;;;;;;19.58;4.47;;;20.80;99.90;;;;;;4994864;28;20058;-77
2020/12/03 03:57:32;;;;;;;18.92;2.75;;;20.80;99.90;;;;;;4995471;28;20038;-76
2020/12/03 04:00:00;;;;;;;19.02;3.70;;;20.80;99.90;;;;;;5004279;28;20034;-76
2020/12/03 04:02:39;;;;;;;17.52;3.13;;;20.80;99.90;;;;;;5022827;23;20053;-76
2020/12/03 04:05:06;;;;;;;24.33;3.75;;;20.90;99.90;;;;;;5023040;23;20481;-76
2020/12/03 04:07:34;;;;;;;21.95;4.22;;;20.90;99.90;;;;;;5045207;23;20077;-77
2020/12/03 04:10:01;;;;;;;16.52;3.20;;;20.90;99.90;;;;;;5032049;28;20105;-76
2020/12/03 04:12:28;;;;;;;18.27;3.00;;;20.90;99.90;;;;;;5041440;23;20045;-76
2020/12/03 04:14:59;;;;;;;17.25;3.47;;;21.00;99.90;;;;;;5032069;28;20040;-77
2020/12/03 04:17:30;;;;;;;16.90;3.00;;;21.00;99.90;;;;;;5018231;28;20159;-76
2020/12/03 04:19:57;;;;;;;17.15;3.10;;;20.90;99.90;;;;;;5029531;23;20057;-76
2020/12/03 04:22:28;;;;;;;20.17;4.00;;;21.00;99.90;;;;;;5030090;28;20033;-77
2020/12/03 04:24:55;;;;;;;19.70;3.03;;;20.90;99.90;;;;;;5030582;28;20064;-77
2020/12/03 04:27:22;;;;;;;14.25;3.25;;;20.90;99.90;;;;;;5034039;28;20017;-80
2020/12/03 04:29:50;;;;;;;20.10;3.95;;;20.80;99.90;;;;;;5031623;28;20104;-81
2020/12/03 04:32:17;;;;;;;22.90;3.25;;;20.80;99.90;;;;;;5027470;28;20037;-83
2020/12/03 04:34:45;;;;;;;22.30;5.40;;;20.80;99.90;;;;;;5030654;28;20063;-78
2020/12/03 04:37:12;;;;;;;19.50;3.00;;;20.70;99.90;;;;;;5034830;23;20061;-77
2020/12/03 04:39:39;;;;;;;19.45;3.22;;;20.80;99.90;;;;;;5022158;28;20029;-78
2020/12/03 04:42:22;;;;;;;17.65;3.58;;;20.70;99.90;;;;;;5028533;28;20392;-78
2020/12/03 04:44:51;;;;;;;19.83;3.65;;;20.70;99.90;;;;;;5021285;28;20029;-77
2020/12/03 04:47:58;;;;;;;15.80;2.92;;;20.70;99.90;;;;;;5028838;28;20022;-76
2020/12/03 04:50:48;;;;;;;20.80;4.18;;;20.80;99.90;;;;;;4995168;28;20068;-74
2020/12/03 04:54:04;;;;;;;20.15;3.15;;;20.80;99.90;;;;;;5012528;28;20034;-76
2020/12/03 04:56:55;;;;;;;21.48;3.70;;;20.80;99.90;;;;;;4992159;28;20128;-76
2020/12/03 04:59:47;;;;;;;18.02;3.22;;;20.70;99.90;;;;;;5013856;28;20045;-78
2020/12/03 05:02:31;;;;;;;27.17;4.18;;;20.60;99.90;;;;;;5026979;28;20105;-73
2020/12/03 05:05:16;;;;;;;;;;;20.70;99.90;;;;;;5017873;28;20091;-77
2020/12/03 05:10:45;;;;;;;20.10;3.63;;;20.70;99.90;;;;;;5031295;23;20153;-75
2020/12/03 05:13:24;;;;;;;16.85;4.40;;;20.70;99.90;;;;;;5024355;28;20025;-79
2020/12/03 05:15:57;;;;;;;25.50;3.90;;;20.80;99.90;;;;;;5030307;28;20041;-75
2020/12/03 05:18:43;;;;;;;25.40;4.37;;;20.80;99.90;;;;;;5027015;28;20037;-78
2020/12/03 05:21:18;;;;;;;21.00;3.80;;;20.70;99.90;;;;;;5025900;28;20282;-78
2020/12/03 05:23:45;;;;;;;18.10;3.63;;;20.60;99.90;;;;;;5021502;28;20025;-75
2020/12/03 05:26:36;;;;;;;24.80;4.15;;;20.50;99.90;;;;;;5032428;28;20021;-74
2020/12/03 05:29:09;;;;;;;19.10;3.65;;;20.60;99.90;;;;;;5012734;28;20088;-75
2020/12/03 05:31:48;;;;;;;19.85;3.40;;;20.60;99.90;;;;;;5030874;28;20017;-75
2020/12/03 05:34:21;;;;;;;19.85;2.78;;;20.60;99.90;;;;;;5025395;28;20033;-75
2020/12/03 05:36:59;;;;;;;17.23;3.28;;;20.70;99.90;;;;;;5029341;28;20041;-75
2020/12/03 05:39:37;;;;;;;17.23;2.67;;;20.80;99.90;;;;;;5026020;28;20489;-75
2020/12/03 05:42:07;;;;;;;18.83;3.55;;;20.80;99.90;;;;;;5026019;28;20068;-74
2020/12/03 05:44:59;;;;;;;19.15;3.50;;;20.80;99.90;;;;;;5030020;28;20037;-74
2020/12/03 05:47:36;;;;;;;28.55;3.50;;;20.80;99.90;;;;;;5032063;28;20033;-81
2020/12/03 05:50:15;;;;;;;20.88;2.97;;;20.90;99.90;;;;;;5029725;28;20096;-74
2020/12/03 05:53:10;;;;;;;19.83;3.42;;;20.90;99.90;;;;;;5023444;28;20025;-76
2020/12/03 05:55:37;;;;;;;23.25;4.50;;;20.90;99.90;;;;;;5023349;28;20041;-74
2020/12/03 05:58:22;;;;;;;18.40;3.92;;;21.00;99.90;;;;;;5031885;28;20033;-76
2020/12/03 06:00:49;;;;;;;;;;;21.00;99.90;;;;;;5028447;28;20022;-72
2020/12/03 06:03:43;;;;;;;14.82;2.78;;;21.10;99.90;;;;;;5030586;28;20006;-72
2020/12/03 06:06:34;;;;;;;26.17;5.18;;;21.00;99.90;;;;;;5027065;28;20458;-73
2020/12/03 06:09:27;;;;;;;18.35;3.85;;;21.00;99.90;;;;;;5022580;28;20059;-72
2020/12/03 06:12:15;;;;;;;21.35;3.83;;;21.00;99.90;;;;;;5030273;28;20413;-72
2020/12/03 06:14:57;;;;;;;23.70;3.85;;;20.90;99.90;;;;;;5026683;28;20067;-72
2020/12/03 06:17:43;;;;;;;15.70;3.33;;;20.90;99.90;;;;;;5030984;28;20045;-72
2020/12/03 06:20:51;;;;;;;21.02;4.25;;;20.90;99.90;;;;;;5028821;28;20494;-72
2020/12/03 06:23:36;;;;;;;21.35;3.92;;;20.80;99.90;;;;;;5030939;28;20052;-72
2020/12/03 06:26:21;;;;;;;19.42;2.85;;;20.80;99.90;;;;;;5022036;28;20033;-72
2020/12/03 06:29:30;;;;;;;18.73;2.97;;;20.80;99.90;;;;;;5031511;28;20021;-72
2020/12/03 06:32:33;;;;;;;14.38;2.97;;;20.80;99.90;;;;;;4997709;28;20100;-72
2020/12/03 06:35:14;;;;;;;17.83;3.05;;;20.90;99.90;;;;;;5023332;28;20458;-72
2020/12/03 06:38:16;;;;;;;18.88;2.92;;;20.90;99.90;;;;;;5030906;28;20059;-72
2020/12/03 06:40:55;;;;;;;20.30;3.55;;;20.90;99.90;;;;;;5024432;28;20044;-72
2020/12/03 06:43:36;;;;;;;25.15;3.42;;;20.90;99.90;;;;;;5014829;28;20052;-72
2020/12/03 06:46:37;;;;;;;16.45;2.97;;;20.90;99.90;;;;;;5029165;28;20033;-72
2020/12/03 06:49:27;;;;;;;20.15;3.03;;;20.90;99.90;;;;;;5026873;28;20041;-72
2020/12/03 06:52:18;;;;;;;16.95;2.65;;;20.90;99.90;;;;;;5008772;28;20037;-73
2020/12/03 06:55:24;;;;;;;18.35;3.85;;;20.90;99.90;;;;;;5017528;28;20524;-73
2020/12/03 06:58:27;;;;;;;18.58;3.65;;;20.90;99.90;;;;;;5030385;28;20128;-73
2020/12/03 07:01:41;;;;;;;24.95;3.58;;;20.80;99.90;;;;;;5023480;28;20032;-72
2020/12/03 07:04:33;;;;;;;16.10;3.03;;;20.80;99.90;;;;;;4992344;28;20030;-70
2020/12/03 07:07:21;;;;;;;18.25;4.05;;;20.80;99.90;;;;;;5026404;28;20025;-71
2020/12/03 07:10:16;;;;;;;19.17;3.20;;;20.80;99.90;;;;;;5023895;28;20045;-70
2020/12/03 07:13:15;;;;;;;23.42;5.28;;;20.80;99.90;;;;;;5019399;28;20026;-70
2020/12/03 07:16:01;;;;;;;27.70;4.28;;;20.80;99.90;;;;;;5016734;28;20069;-70
2020/12/03 07:18:49;;;;;;;16.63;5.20;;;20.80;99.90;;;;;;5018235;28;20030;-70
2020/12/03 07:21:51;;;;;;;25.10;5.00;;;20.80;99.90;;;;;;5029545;28;20026;-70
2020/12/03 07:24:32;;;;;;;22.55;3.65;;;20.80;99.90;;;;;;5027861;28;20049;-70
2020/12/03 07:27:20;;;;;;;18.95;4.45;;;20.80;99.90;;;;;;5026207;28;20130;-70
2020/12/03 07:29:53;;;;;;;23.05;5.28;;;20.80;99.90;;;;;;5023122;28;20377;-70
2020/12/03 07:32:45;;;;;;;22.00;4.03;;;20.80;99.90;;;;;;5025044;28;20121;-70
2020/12/03 07:35:25;;;;;;;25.67;4.60;;;20.90;99.90;;;;;;5016383;28;20502;-71
2020/12/03 07:38:04;;;;;;;27.92;6.05;;;20.80;99.90;;;;;;5021108;28;20021;-71
2020/12/03 07:40:33;;;;;;;16.65;3.78;;;20.90;99.90;;;;;;5024094;28;20045;-70
2020/12/03 07:43:13;;;;;;;21.02;4.47;;;20.90;99.90;;;;;;5020389;28;20025;-70
2020/12/03 07:45:49;;;;;;;19.55;4.20;;;20.80;99.90;;;;;;5023252;28;20037;-70
2020/12/03 07:48:24;;;;;;;21.08;4.63;;;20.80;99.90;;;;;;5027256;28;20025;-70
2020/12/03 07:51:03;;;;;;;20.45;3.38;;;20.80;99.90;;;;;;5027351;28;20030;-70
2020/12/03 07:53:32;;;;;;;18.23;2.95;;;20.80;99.90;;;;;;5025840;28;20028;-70
2020/12/03 07:56:20;;;;;;;22.35;3.60;;;20.80;99.90;;;;;;5016074;28;20108;-72
2020/12/03 07:58:47;;;;;;;23.33;4.22;;;20.80;99.90;;;;;;5010048;28;20374;-72
2020/12/03 08:01:26;;;;;;;22.00;3.58;;;20.80;99.90;;;;;;5030185;28;20044;-72
2020/12/03 08:03:54;;;;;;;27.33;3.85;;;20.80;99.90;;;;;;5027910;28;20099;-73
2020/12/03 08:06:27;;;;;;;24.08;4.43;;;20.80;99.90;;;;;;5023363;28;20475;-73
2020/12/03 08:09:00;;;;;;;26.17;4.82;;;20.80;99.90;;;;;;5010754;28;20046;-73
2020/12/03 08:12:14;;;;;;;20.38;3.10;;;20.80;99.90;;;;;;5010750;28;20573;-73
2020/12/03 08:14:51;;;;;;;21.65;3.20;;;20.70;99.90;;;;;;5001559;28;20124;-73
2020/12/03 08:17:19;;;;;;;30.30;4.22;;;20.80;99.90;;;;;;5029057;28;20064;-73
2020/12/03 08:19:56;;;;;;;30.85;4.60;;;20.70;99.90;;;;;;5031689;28;20128;-73
2020/12/03 08:22:34;;;;;;;21.90;3.95;;;20.70;99.90;;;;;;5014636;28;20022;-73
2020/12/03 08:25:03;;;;;;;17.73;4.13;;;20.70;99.90;;;;;;5014000;28;20041;-73
2020/12/03 08:27:31;;;;;;;26.88;5.13;;;20.70;99.90;;;;;;5012428;28;20033;-73
2020/12/03 08:29:57;;;;;;;25.80;5.88;;;20.70;99.90;;;;;;5014067;28;20026;-73
2020/12/03 08:32:24;;;;;;;24.98;4.97;;;20.70;99.90;;;;;;5013847;28;20094;-73
2020/12/03 08:34:51;;;;;;;27.55;3.85;;;20.70;99.90;;;;;;5021130;28;20708;-73
2020/12/03 08:37:23;;;;;;;29.50;5.13;;;20.70;99.90;;;;;;5027580;28;20026;-72
2020/12/03 08:39:53;;;;;;;28.98;5.50;;;20.70;99.90;;;;;;5033949;28;20136;-73
2020/12/03 08:42:21;;;;;;;26.58;4.68;;;20.70;99.90;;;;;;5033800;28;20482;-73
2020/12/03 08:44:53;;;;;;;27.20;4.13;;;20.70;99.90;;;;;;5015322;28;20044;-73
2020/12/03 08:47:43;;;;;;;30.58;4.95;;;20.60;99.90;;;;;;5013851;28;20112;-73
2020/12/03 08:50:17;;;;;;;26.77;5.10;;;20.60;99.90;;;;;;5025118;28;20021;-73
2020/12/03 08:52:46;;;;;;;23.75;4.30;;;20.60;99.90;;;;;;5033029;28;20075;-73
2020/12/03 08:55:14;;;;;;;23.98;4.25;;;20.60;99.90;;;;;;5032215;28;20097;-72
2020/12/03 08:57:43;;;;;;;29.67;3.72;;;20.60;99.90;;;;;;5031929;28;20026;-73
2020/12/03 09:00:18;;;;;;;29.00;5.07;;;20.60;99.90;;;;;;5033277;28;20030;-73
2020/12/03 09:02:47;;;;;;;29.70;3.83;;;20.60;99.90;;;;;;5033339;28;20606;-73
2020/12/03 09:05:16;;;;;;;28.20;5.05;;;20.60;99.90;;;;;;5033121;28;20064;-73
2020/12/03 09:07:52;;;;;;;24.88;5.82;;;20.60;99.90;;;;;;5032881;28;20036;-72
2020/12/03 09:10:22;;;;;;;27.25;5.32;;;20.60;99.90;;;;;;5032790;28;20184;-72
2020/12/03 09:12:51;;;;;;;25.35;4.38;;;20.50;99.90;;;;;;5020139;28;20026;-72
2020/12/03 09:15:19;;;;;;;29.63;4.28;;;20.50;99.90;;;;;;5022052;28;20030;-72
2020/12/03 09:17:56;;;;;;;25.00;3.50;;;20.50;99.90;;;;;;5013081;28;20056;-73
2020/12/03 09:20:23;;;;;;;28.83;5.07;;;20.50;99.90;;;;;;5016405;28;20025;-73
2020/12/03 09:22:50;;;;;;;24.60;5.25;;;20.50;99.90;;;;;;5032729;28;20033;-72
2020/12/03 09:25:18;;;;;;;27.42;4.18;;;20.40;99.90;;;;;;5032826;28;20474;-73
2020/12/03 09:27:48;;;;;;;23.35;4.68;;;20.40;99.90;;;;;;5031262;28;20496;-72
2020/12/03 09:30:24;;;;;;;35.90;5.93;;;20.40;99.90;;;;;;5026414;28;20398;-72
2020/12/03 09:32:59;;;;;;;28.60;4.70;;;20.40;99.90;;;;;;5014136;28;20025;-72
2020/12/03 09:35:28;;;;;;;29.65;5.05;;;20.40;99.90;;;;;;5013281;28;20022;-72
2020/12/03 09:38:01;;;;;;;28.33;4.95;;;20.40;99.90;;;;;;5012551;28;20022;-72
2020/12/03 09:40:30;;;;;;;27.23;5.00;;;20.40;99.90;;;;;;5012447;28;20034;-72
2020/12/03 09:42:58;;;;;;;26.80;4.47;;;20.50;99.90;;;;;;5014315;28;20026;-72
2020/12/03 09:45:42;;;;;;;26.98;4.40;;;20.40;99.90;;;;;;5013457;28;20045;-72
2020/12/03 09:48:16;;;;;;;21.83;3.97;;;20.40;99.90;;;;;;5011945;28;20033;-72
2020/12/03 09:50:46;;;;;;;25.17;3.40;;;20.40;99.90;;;;;;5012358;28;20029;-72
2020/12/03 09:53:20;;;;;;;24.00;3.92;;;20.40;99.90;;;;;;5023010;28;20041;-72
2020/12/03 09:55:49;;;;;;;26.20;4.65;;;20.40;99.90;;;;;;5029714;28;20037;-72
2020/12/03 09:58:20;;;;;;;23.30;5.03;;;20.30;99.90;;;;;;5013645;28;20097;-72
2020/12/03 10:00:51;;;;;;;25.88;4.25;;;20.30;99.90;;;;;;5026048;28;20021;-72
2020/12/03 10:03:24;;;;;;;21.63;4.38;;;20.40;99.90;;;;;;5031882;28;20033;-72
2020/12/03 10:06:30;;;;;;;23.47;4.43;;;20.30;99.90;;;;;;5026825;28;20069;-72
2020/12/03 10:09:29;;;;;;;19.63;3.85;;;20.40;99.90;;;;;;5016133;28;20129;-71
2020/12/03 10:12:03;;;;;;;26.30;4.43;;;20.40;99.90;;;;;;4964125;28;20159;-72
2020/12/03 10:14:33;;;;;;;27.73;3.83;;;20.30;99.90;;;;;;5027782;28;20056;-72
2020/12/03 10:17:05;;;;;;;26.33;5.20;;;20.20;99.90;;;;;;5018036;28;20349;-72
2020/12/03 10:19:40;;;;;;;22.73;4.60;;;20.20;99.90;;;;;;5032100;28;20021;-72
2020/12/03 10:22:14;;;;;;;21.88;3.58;;;20.20;99.90;;;;;;5023720;28;20437;-72
2020/12/03 10:25:16;;;;;;;21.60;4.10;;;20.20;99.90;;;;;;5024603;28;20132;-72
2020/12/03 10:28:01;;;;;;;25.33;4.97;;;20.20;99.90;;;;;;5019187;28;20018;-72
2020/12/03 10:30:39;;;;;;;24.17;4.30;;;20.20;99.90;;;;;;5017627;28;20054;-72
2020/12/03 10:33:14;;;;;;;33.00;5.15;;;20.20;99.90;;;;;;5026502;28;20390;-73
2020/12/03 10:35:49;;;;;;;33.67;4.65;;;20.20;99.90;;;;;;5029809;28;20116;-72
2020/12/03 10:38:24;;;;;;;21.00;3.60;;;20.20;99.90;;;;;;5018992;28;20080;-73
2020/12/03 10:40:54;;;;;;;30.88;5.70;;;20.20;99.90;;;;;;5011480;28;20041;-72
2020/12/03 10:43:30;;;;;;;20.75;3.78;;;20.10;99.90;;;;;;5011162;28;20034;-72
2020/12/03 10:46:02;;;;;;;31.63;6.22;;;20.10;99.90;;;;;;5017595;28;20116;-72
2020/12/03 10:48:34;;;;;;;24.60;3.83;;;20.20;99.90;;;;;;5030520;28;20029;-73
2020/12/03 10:51:04;;;;;;;23.65;4.93;;;20.10;99.90;;;;;;5020408;28;20029;-73
2020/12/03 10:53:33;;;;;;;24.27;4.47;;;20.10;99.90;;;;;;5018486;28;20022;-73
2020/12/03 10:56:03;;;;;;;27.00;5.90;;;20.20;99.90;;;;;;5017514;28;20058;-74
2020/12/03 10:58:57;;;;;;;23.23;4.38;;;20.10;99.90;;;;;;5026118;28;20084;-73
2020/12/03 11:01:28;;;;;;;30.27;4.60;;;20.10;99.90;;;;;;5028829;28;20119;-73
2020/12/03 11:04:16;;;;;;;27.05;4.47;;;20.10;99.90;;;;;;5031165;28;20034;-73
2020/12/03 11:06:43;;;;;;;21.67;4.07;;;20.10;99.90;;;;;;5031259;28;20026;-73
2020/12/03 11:09:20;;;;;;;22.05;4.70;;;20.10;99.90;;;;;;5019487;28;20099;-74
2020/12/03 11:11:49;;;;;;;30.73;5.40;;;20.20;99.90;;;;;;5018185;28;20030;-73
2020/12/03 11:14:17;;;;;;;20.77;5.22;;;20.20;99.90;;;;;;5025018;28;20025;-73
2020/12/03 11:16:49;;;;;;;22.45;4.35;;;20.20;99.90;;;;;;5023312;28;20026;-72
2020/12/03 11:19:18;;;;;;;26.30;4.90;;;20.20;99.90;;;;;;5015370;28;20034;-73
2020/12/03 11:22:16;;;;;;;25.60;4.38;;;20.20;99.90;;;;;;5014437;28;20030;-72
2020/12/03 11:25:02;;;;;;;24.27;4.35;;;20.20;99.90;;;;;;4991048;28;20495;-72
2020/12/03 11:27:31;;;;;;;22.05;4.43;;;20.10;99.90;;;;;;5016677;28;20025;-72
2020/12/03 11:30:19;;;;;;;22.48;4.38;;;20.20;99.90;;;;;;5027103;28;20108;-73
2020/12/03 11:32:55;;;;;;;32.40;7.00;;;20.20;99.90;;;;;;5026571;28;20032;-72
2020/12/03 11:35:22;;;;;;;27.67;7.00;;;20.10;99.90;;;;;;5030952;28;20513;-72
2020/12/03 11:37:57;;;;;;;27.50;7.60;;;20.10;99.90;;;;;;5028631;28;20086;-73
2020/12/03 11:40:47;;;;;;;28.77;8.27;;;20.10;99.90;;;;;;5030980;28;20025;-73
2020/12/03 11:49:00;;;;;;;26.58;8.23;;;20.20;99.90;;;;;;5013073;28;20451;-72
2020/12/03 11:51:33;;;;;;;25.73;9.35;;;20.20;99.90;;;;;;5011174;28;20073;-73
2020/12/03 11:54:03;;;;;;;28.17;11.38;;;20.20;99.90;;;;;;5013801;28;20045;-73
2020/12/03 11:56:32;;;;;;;33.30;11.98;;;20.30;99.90;;;;;;5034418;28;20029;-73
2020/12/03 11:59:20;;;;;;;30.58;11.18;;;20.30;99.90;;;;;;5022654;28;20368;-73
2020/12/03 12:01:51;;;;;;;32.42;11.35;;;20.30;99.90;;;;;;5030592;28;20037;-73
2020/12/03 12:04:23;;;;;;;35.17;10.65;;;20.30;99.90;;;;;;5032517;28;20041;-73
2020/12/03 12:07:18;;;;;;;30.92;11.93;;;20.30;99.90;;;;;;5014906;28;20109;-73
2020/12/03 12:09:55;;;;;;;29.67;10.70;;;20.30;99.90;;;;;;5018549;28;20490;-73
2020/12/03 12:12:24;;;;;;;29.02;10.38;;;20.20;99.90;;;;;;5032787;28;20025;-74
2020/12/03 12:14:52;;;;;;;36.78;13.15;;;20.20;99.90;;;;;;5023056;28;20022;-73
2020/12/03 12:17:20;;;;;;;31.02;12.45;;;20.10;99.90;;;;;;5038528;28;20052;-73
2020/12/03 12:19:51;;;;;;;36.03;13.48;;;20.10;99.90;;;;;;5022688;28;20021;-73
2020/12/03 12:22:18;;;;;;;27.73;11.20;;;20.20;99.90;;;;;;5033935;28;20045;-73
2020/12/03 12:24:46;;;;;;;35.47;12.85;;;20.10;99.90;;;;;;5034120;28;20461;-73
2020/12/03 12:27:14;;;;;;;31.48;13.13;;;20.10;99.90;;;;;;5030701;28;20029;-73
2020/12/03 12:29:43;;;;;;;33.47;12.00;;;20.10;99.90;;;;;;5026435;28;20022;-73
2020/12/03 12:32:11;;;;;;;29.60;13.00;;;20.20;99.90;;;;;;5031234;28;20497;-73
2020/12/03 12:34:43;;;;;;;39.38;13.35;;;20.20;99.90;;;;;;5031876;28;20033;-72
2020/12/03 12:37:11;;;;;;;30.45;13.45;;;20.20;99.90;;;;;;5012640;28;20033;-73
2020/12/03 12:39:41;;;;;;;30.20;12.55;;;20.20;99.90;;;;;;5020350;28;20454;-73
2020/12/03 12:42:09;;;;;;;35.90;13.05;;;20.20;99.90;;;;;;5033646;28;20036;-73
2020/12/03 12:44:37;;;;;;;33.22;13.93;;;20.20;99.90;;;;;;5033648;28;20032;-72
2020/12/03 12:47:05;;;;;;;29.42;13.20;;;20.20;99.90;;;;;;5032865;28;20068;-73
2020/12/03 12:49:33;;;;;;;33.80;13.07;;;20.20;99.90;;;;;;5025975;28;20037;-72
2020/12/03 12:52:01;;;;;;;32.22;12.30;;;20.20;99.90;;;;;;5020504;28;20041;-72
2020/12/03 12:54:28;;;;;;;35.53;14.27;;;20.20;99.90;;;;;;5014021;28;20025;-73
2020/12/03 12:56:56;;;;;;;35.00;14.13;;;20.10;99.90;;;;;;5014183;28;20026;-73
2020/12/03 12:59:24;;;;;;;33.28;14.35;;;20.20;99.90;;;;;;5017863;28;20041;-73
2020/12/03 13:01:51;;;;;;;34.95;13.68;;;20.20;99.90;;;;;;5031870;28;20056;-73
2020/12/03 13:04:20;;;;;;;30.80;13.85;;;20.20;99.90;;;;;;5026189;28;20045;-73
2020/12/03 13:06:48;;;;;;;32.08;14.57;;;20.20;99.90;;;;;;5013267;28;20383;-72
2020/12/03 13:09:16;;;;;;;34.08;14.93;;;20.20;99.90;;;;;;5018757;28;20052;-73
2020/12/03 13:11:43;;;;;;;27.30;14.35;;;20.20;99.90;;;;;;5013614;28;20113;-73
2020/12/03 13:14:11;;;;;;;36.95;14.52;;;20.20;99.90;;;;;;5013561;28;20032;-72
2020/12/03 13:16:39;;;;;;;35.15;14.90;;;20.20;99.90;;;;;;5013194;28;20075;-73
2020/12/03 13:19:08;;;;;;;33.20;16.15;;;20.20;99.90;;;;;;5013865;28;20505;-72
2020/12/03 13:22:30;;;;;;;34.15;14.85;;;20.20;99.90;;;;;;5030680;28;20021;-73